Погода Подгаевкана неделю

Ростовская область, Россия

12 - 18 июля
  • 12июля
    Сегодня
    +17°
    +32°
    Ясно и безоблачно
    ВремяПогодаТемператураВлажностьДавлениеВетер, м/сВероятность осадков
    00:00Ясно и безоблачно+25°C49 %752 мм3.1 м/с2 %
    03:00Ясно и безоблачно+22°C55 %752 мм2.6 м/с2 %
    06:00Ясно и безоблачно+21°C47 %752 мм3.0 м/с2 %
    09:00Ясно и безоблачно+26°C33 %753 мм4.3 м/с2 %
    12:00Ясно и безоблачно+29°C23 %752 мм4.9 м/с2 %
    15:00Ясно и безоблачно+31°C23 %751 мм4.8 м/с2 %
    18:00Ясно и безоблачно+30°C22 %751 мм5.0 м/с2 %
    21:00Ясно и безоблачно+24°C30 %751 мм3.0 м/с2 %
  • 13июля
    Суббота
    +17°
    +31°
    Ясно и безоблачно
    ВремяПогодаТемператураВлажностьДавлениеВетер, м/сВероятность осадков
    00:00Ясно и безоблачно+21°C38 %751 мм2.9 м/с2 %
    03:00Ясно и безоблачно+18°C44 %751 мм2.3 м/с2 %
    06:00Ясно и безоблачно+18°C47 %752 мм2.4 м/с2 %
    09:00Ясно и безоблачно+25°C31 %752 мм3.6 м/с2 %
    12:00Ясно и безоблачно+29°C24 %751 мм4.9 м/с2 %
    15:00Ясно и безоблачно+31°C20 %750 мм4.4 м/с2 %
    18:00Ясно и безоблачно+29°C23 %749 мм4.5 м/с2 %
    21:00Ясно и безоблачно+24°C34 %749 мм2.6 м/с2 %
  • 14июля
    Воскресенье
    +20°
    +34°
    Ясно и безоблачно
    ВремяПогодаТемператураВлажностьДавлениеВетер, м/сВероятность осадков
    00:00Ясно и безоблачно+21°C43 %750 мм2.3 м/с2 %
    03:00Ясно и безоблачно+18°C53 %750 мм1.7 м/с2 %
    06:00Ясно и безоблачно+19°C53 %750 мм2.0 м/с2 %
    09:00Ясно и безоблачно+26°C34 %750 мм3.3 м/с2 %
    12:00Ясно и безоблачно+30°C26 %750 мм4.8 м/с2 %
    15:00Ясно и безоблачно+33°C23 %749 мм4.5 м/с2 %
    18:00Ясно и безоблачно+32°C28 %749 мм4.5 м/с2 %
    21:00Ясно и безоблачно+26°C37 %749 мм1.9 м/с2 %
  • 15июля
    Понедельник
    +23°
    +37°
    Небольшая облачность
    ВремяПогодаТемператураВлажностьДавлениеВетер, м/сВероятность осадков
    00:00Ясно и безоблачно+23°C43 %749 мм1.8 м/с2 %
    03:00Ясно и безоблачно+21°C48 %749 мм1.4 м/с2 %
    06:00Ясно и безоблачно+23°C45 %749 мм1.5 м/с2 %
    09:00Ясно и безоблачно+30°C28 %750 мм2.1 м/с2 %
    12:00Ясно и безоблачно+35°C29 %749 мм2.9 м/с2 %
    15:00Небольшая облачность+36°C29 %749 мм2.8 м/с9 %
    18:00Небольшая облачность, возможен дождь с грозой+33°C34 %749 мм4.7 м/с20 %
    21:00Практически безоблачно+29°C46 %749 мм1.9 м/с3 %
  • 16июля
    Вторник
    +22°
    +37°
    Практически безоблачно
    ВремяПогодаТемператураВлажностьДавлениеВетер, м/сВероятность осадков
    00:00Ясно и безоблачно+26°C57 %749 мм1.9 м/с2 %
    03:00Ясно и безоблачно+23°C67 %749 мм1.7 м/с2 %
    06:00Ясно и безоблачно+24°C66 %750 мм2.1 м/с2 %
    09:00Практически безоблачно+31°C46 %750 мм2.9 м/с2 %
    12:00Практически безоблачно+34°C36 %750 мм4.0 м/с2 %
    15:00Практически безоблачно+36°C31 %749 мм3.5 м/с3 %
    18:00Небольшая облачность+35°C29 %749 мм4.4 м/с16 %
    21:00Практически безоблачно+29°C40 %750 мм2.8 м/с5 %
Мы используем cookies
Соглашаюсь